Time;durP1;ratioP1;P1;durP2;ratioP2;P2;SDS_P1;SDS_P2;PMS_P1;PMS_P2;Temp;Humidity;BMP_temperature;BMP_pressure;BME280_temperature;BME280_humidity;BME280_pressure;Samples;Min_cycle;Max_cycle;Signal;HPM_P1;HPM_P2
2022/01/31 00:01:27;;;;;;;19.43;3.37;;;;;;;2.79;94.02;94458.78;5035366;28;20671;-63
2022/01/31 00:03:52;;;;;;;16.80;3.33;;;;;;;2.74;92.83;94470.78;5053121;28;20228;-60
2022/01/31 00:06:19;;;;;;;10.83;2.57;;;;;;;2.70;92.25;94475.16;5052985;28;20178;-63
2022/01/31 00:08:45;;;;;;;9.27;2.43;;;;;;;2.76;87.13;94484.84;5053205;28;20529;-60
2022/01/31 00:11:10;;;;;;;9.70;2.70;;;;;;;2.77;83.15;94486.44;5052706;28;20246;-59
2022/01/31 00:13:40;;;;;;;9.30;2.87;;;;;;;2.72;81.26;94500.16;5052829;28;20247;-60
2022/01/31 00:16:08;;;;;;;13.77;2.60;;;;;;;2.78;81.06;94494.78;5034829;28;20178;-59
2022/01/31 00:18:34;;;;;;;13.10;2.70;;;;;;;2.79;80.83;94489.69;5035220;28;20217;-59
2022/01/31 00:21:00;;;;;;;13.23;3.60;;;;;;;2.75;79.92;94502.50;5052681;28;20197;-63
2022/01/31 00:23:25;;;;;;;11.23;2.43;;;;;;;2.75;79.84;94497.50;5052684;28;20247;-62
2022/01/31 00:25:51;;;;;;;9.87;2.23;;;;;;;2.75;79.50;94498.28;5052511;28;20183;-64
2022/01/31 00:28:16;;;;;;;15.47;2.63;;;;;;;2.76;79.59;94499.09;5052691;28;20679;-64
2022/01/31 00:30:42;;;;;;;8.53;2.93;;;;;;;2.74;79.88;94476.59;5052393;28;20188;-64
2022/01/31 00:33:08;;;;;;;13.93;2.80;;;;;;;2.71;79.68;94479.28;5052470;28;20715;-62
2022/01/31 00:35:33;;;;;;;7.63;1.90;;;;;;;2.77;79.54;94506.53;5034476;28;20181;-59
2022/01/31 00:37:59;;;;;;;7.83;2.33;;;;;;;2.76;79.64;94487.38;5052221;28;20290;-62
2022/01/31 00:40:25;;;;;;;15.37;2.53;;;;;;;2.78;79.96;94484.75;5052395;28;20205;-65
2022/01/31 00:42:51;;;;;;;22.00;3.60;;;;;;;2.76;78.71;94487.38;5034237;28;20216;-65
2022/01/31 00:45:23;;;;;;;9.80;2.70;;;;;;;2.72;79.28;94485.91;5034203;28;20186;-64
2022/01/31 00:47:59;;;;;;;13.07;4.17;;;;;;;2.71;79.79;94493.53;5057034;23;20292;-62
2022/01/31 00:50:25;;;;;;;16.90;2.93;;;;;;;2.68;80.02;94471.13;5052108;28;20177;-62
2022/01/31 00:52:50;;;;;;;8.57;2.33;;;;;;;2.69;79.78;94483.56;5051912;28;20317;-61
2022/01/31 00:55:16;;;;;;;16.40;3.00;;;;;;;2.71;80.11;94491.03;5051912;28;20265;-64
2022/01/31 00:57:42;;;;;;;12.17;2.77;;;;;;;2.69;79.14;94496.13;5051793;28;20182;-63
2022/01/31 01:00:10;;;;;;;16.23;2.80;;;;;;;2.73;80.01;94482.50;5051923;28;20193;-62
2022/01/31 01:02:35;;;;;;;17.10;2.53;;;;;;;2.77;79.81;94468.88;5052007;28;20279;-63
2022/01/31 01:05:02;;;;;;;15.20;2.73;;;;;;;2.78;79.43;94475.53;5033791;28;20667;-64
2022/01/31 01:07:27;;;;;;;10.47;2.43;;;;;;;2.76;79.56;94491.56;5051667;28;20177;-64
2022/01/31 01:09:53;;;;;;;15.30;2.73;;;;;;;2.76;79.39;94496.59;5051332;28;20690;-61
2022/01/31 01:12:19;;;;;;;13.97;2.47;;;;;;;2.72;79.17;94493.44;5051139;28;20178;-61
2022/01/31 01:14:45;;;;;;;12.17;2.60;;;;;;;2.75;78.15;94505.81;5033884;28;20205;-59
2022/01/31 01:17:11;;;;;;;10.93;1.93;;;;;;;2.70;78.51;94500.25;5033575;28;20285;-62
2022/01/31 01:19:36;;;;;;;21.60;2.07;;;;;;;2.71;78.92;94491.81;5052226;28;20198;-62
2022/01/31 01:22:03;;;;;;;21.63;2.80;;;;;;;2.71;78.75;94484.28;5051393;28;20660;-63
2022/01/31 01:24:28;;;;;;;16.03;2.23;;;;;;;2.73;78.13;94491.75;5033712;28;20616;-60
2022/01/31 01:26:54;;;;;;;12.70;2.67;;;;;;;2.68;78.62;94476.13;5033361;28;20231;-62
2022/01/31 01:29:20;;;;;;;7.43;2.57;;;;;;;2.67;77.99;94492.09;5051582;28;20198;-61
2022/01/31 01:31:48;;;;;;;10.50;2.20;;;;;;;2.67;77.10;94502.94;5051527;28;20188;-63
2022/01/31 01:34:13;;;;;;;12.43;2.67;;;;;;;2.71;76.89;94509.38;5051727;28;20205;-63
2022/01/31 01:36:41;;;;;;;10.50;2.07;;;;;;;2.71;77.11;94494.31;5051211;28;20182;-64
2022/01/31 01:39:07;;;;;;;7.23;2.40;;;;;;;2.69;77.26;94486.09;5051736;28;20283;-63
2022/01/31 01:41:33;;;;;;;14.13;2.27;;;;;;;2.72;76.76;94507.69;5033574;28;20229;-63
2022/01/31 01:43:58;;;;;;;15.83;2.77;;;;;;;2.71;77.29;94501.84;5051407;28;20213;-64
2022/01/31 01:46:24;;;;;;;10.43;2.57;;;;;;;2.69;77.19;94483.56;5051372;28;20178;-61
2022/01/31 01:48:49;;;;;;;10.70;2.40;;;;;;;2.64;78.25;94473.00;5033244;28;20215;-60
2022/01/31 01:51:15;;;;;;;10.43;1.77;;;;;;;2.70;77.00;94494.44;5051363;28;20638;-60
2022/01/31 01:53:41;;;;;;;13.60;2.30;;;;;;;2.71;77.03;94496.06;5051057;28;20202;-59
2022/01/31 01:56:07;;;;;;;9.70;2.30;;;;;;;2.65;76.58;94502.22;5033137;28;20599;-60
2022/01/31 01:58:41;;;;;;;14.80;2.73;;;;;;;2.63;77.78;94491.44;5051351;28;20287;-65
2022/01/31 02:01:07;;;;;;;8.30;2.37;;;;;;;2.64;77.24;94490.56;5033343;28;20205;-65
2022/01/31 02:03:35;;;;;;;7.97;2.30;;;;;;;2.62;78.31;94491.53;5051331;28;20623;-65
2022/01/31 02:06:02;;;;;;;11.43;2.10;;;;;;;2.62;77.98;94476.50;5033134;28;20678;-59
2022/01/31 02:08:28;;;;;;;9.20;2.37;;;;;;;2.63;77.49;94503.22;5051257;28;20229;-61
2022/01/31 02:10:55;;;;;;;8.03;1.93;;;;;;;2.66;78.03;94480.44;5033737;28;20182;-65
2022/01/31 02:13:20;;;;;;;15.87;2.43;;;;;;;2.64;78.43;94470.50;5033178;28;20212;-58
2022/01/31 02:15:51;;;;;;;8.93;2.10;;;;;;;2.63;78.45;94486.44;5050946;28;20186;-62
2022/01/31 02:18:20;;;;;;;10.63;2.30;;;;;;;2.63;78.87;94463.06;5033489;28;20198;-62
2022/01/31 02:20:46;;;;;;;8.60;2.00;;;;;;;2.69;78.26;94485.28;5050998;28;20217;-66
2022/01/31 02:23:14;;;;;;;7.77;2.00;;;;;;;2.60;77.10;94504.19;5040974;23;20228;-63
2022/01/31 02:26:01;;;;;;;9.30;2.03;;;;;;;2.59;77.14;94496.75;5054807;28;20177;-63
2022/01/31 02:28:28;;;;;;;7.40;2.53;;;;;;;2.62;76.63;94507.41;5055058;28;20240;-62
2022/01/31 02:30:55;;;;;;;11.93;2.03;;;;;;;2.55;76.02;94519.50;5054714;28;20216;-64
2022/01/31 02:33:21;;;;;;;11.70;2.00;;;;;;;2.58;76.56;94515.19;5054644;28;20201;-62
2022/01/31 02:35:53;;;;;;;10.00;2.63;;;;;;;2.54;76.29;94520.38;5054775;28;20201;-63
2022/01/31 02:38:19;;;;;;;7.43;1.93;;;;;;;2.56;76.46;94502.75;5054788;28;20356;-64
2022/01/31 02:40:45;;;;;;;13.07;2.10;;;;;;;2.55;76.55;94518.66;5054711;28;20205;-64
2022/01/31 02:43:17;;;;;;;7.33;2.10;;;;;;;2.64;76.07;94515.66;5036634;28;20213;-63
2022/01/31 02:45:43;;;;;;;9.03;2.60;;;;;;;2.63;75.47;94529.09;5054492;28;20169;-63
2022/01/31 02:48:08;;;;;;;6.23;2.10;;;;;;;2.52;75.42;94531.41;5059127;23;20232;-62
2022/01/31 02:50:34;;;;;;;9.07;2.00;;;;;;;2.52;75.98;94531.41;5054742;28;20192;-64
2022/01/31 02:53:10;;;;;;;6.40;1.70;;;;;;;2.55;75.64;94534.53;5054189;28;20298;-60
2022/01/31 02:55:42;;;;;;;6.83;2.37;;;;;;;2.51;75.47;94534.78;5054489;28;20621;-62
2022/01/31 02:58:08;;;;;;;9.27;2.27;;;;;;;2.53;75.79;94518.75;5054388;28;20263;-59
2022/01/31 03:00:35;;;;;;;9.43;1.87;;;;;;;2.56;74.76;94552.91;5054110;28;20201;-60
2022/01/31 03:03:00;;;;;;;6.37;1.43;;;;;;;2.49;75.59;94534.06;5036254;28;20212;-63
2022/01/31 03:05:26;;;;;;;7.03;2.37;;;;;;;2.54;75.64;94527.88;5054452;28;20192;-62
2022/01/31 03:07:51;;;;;;;7.87;2.40;;;;;;;2.50;75.39;94545.72;5053991;28;20205;-59
2022/01/31 03:10:17;;;;;;;9.53;1.83;;;;;;;2.59;74.81;94550.22;5054393;28;20256;-59
2022/01/31 03:12:42;;;;;;;5.03;2.17;;;;;;;2.52;75.00;94543.94;5053992;28;20200;-59
2022/01/31 03:15:08;;;;;;;5.73;2.13;;;;;;;2.50;75.41;94548.25;5053910;28;20581;-67
2022/01/31 03:17:34;;;;;;;8.20;1.80;;;;;;;2.50;74.90;94560.78;5053723;28;20188;-63
2022/01/31 03:20:00;;;;;;;4.93;1.77;;;;;;;2.51;75.05;94558.19;5054101;28;20371;-65
2022/01/31 03:22:26;;;;;;;5.40;1.47;;;;;;;2.46;74.38;94549.28;5053776;28;20742;-64
2022/01/31 03:24:51;;;;;;;7.80;2.43;;;;;;;2.45;75.44;94540.13;5035818;28;20178;-63
2022/01/31 03:27:17;;;;;;;8.80;2.13;;;;;;;2.53;75.38;94535.50;5053681;28;20651;-63
2022/01/31 03:29:42;;;;;;;12.60;3.17;;;;;;;2.51;75.87;94514.72;5054014;28;20718;-62
2022/01/31 03:32:08;;;;;;;2.50;1.60;;;;;;;2.48;76.58;94489.81;5035853;28;20655;-63
2022/01/31 03:34:34;;;;;;;7.27;1.87;;;;;;;2.49;77.26;94486.41;5052700;28;20288;-66
2022/01/31 03:37:00;;;;;;;10.67;2.83;;;;;;;2.43;77.31;94471.69;5020023;28;20572;-66
2022/01/31 03:39:26;;;;;;;7.30;2.30;;;;;;;2.38;77.25;94483.72;5036826;28;20212;-65
2022/01/31 03:41:52;;;;;;;10.13;4.30;;;;;;;2.45;76.67;94500.00;5042035;23;20226;-65
2022/01/31 03:44:18;;;;;;;6.40;2.30;;;;;;;2.40;76.12;94510.28;5054365;28;20194;-60
2022/01/31 03:46:43;;;;;;;8.33;2.30;;;;;;;2.41;75.37;94514.44;5035633;28;20204;-63
2022/01/31 03:49:08;;;;;;;6.77;2.00;;;;;;;2.30;75.45;94520.94;5053030;28;20194;-62
2022/01/31 03:51:35;;;;;;;8.73;2.23;;;;;;;2.29;75.95;94506.78;5035992;28;20563;-62
2022/01/31 03:54:01;;;;;;;6.33;1.90;;;;;;;2.22;75.17;94528.06;5053127;28;20235;-60
2022/01/31 03:56:26;;;;;;;15.43;2.37;;;;;;;2.28;75.90;94520.22;5035256;28;20177;-59
2022/01/31 03:58:51;;;;;;;3.20;1.47;;;;;;;2.22;75.14;94523.06;5052931;28;20626;-65
2022/01/31 04:01:17;;;;;;;5.90;2.17;;;;;;;2.25;76.08;94506.13;5053365;28;20714;-64
2022/01/31 04:03:42;;;;;;;10.50;1.77;;;;;;;2.28;75.67;94500.94;5052950;28;20199;-60
2022/01/31 04:06:08;;;;;;;5.30;1.70;;;;;;;2.30;76.31;94501.66;5035551;28;20198;-66
2022/01/31 04:08:33;;;;;;;10.23;2.03;;;;;;;2.29;75.54;94521.81;5053017;28;20272;-64
2022/01/31 04:10:59;;;;;;;5.23;1.87;;;;;;;2.30;76.32;94510.91;5053652;28;20186;-65
2022/01/31 04:13:26;;;;;;;9.10;1.90;;;;;;;2.24;75.90;94507.00;5040377;23;20317;-63
2022/01/31 04:15:53;;;;;;;10.43;2.23;;;;;;;2.26;76.12;94511.97;5035859;28;20645;-63
2022/01/31 04:18:21;;;;;;;8.33;2.07;;;;;;;2.31;76.51;94512.50;5035656;28;20748;-60
2022/01/31 04:20:46;;;;;;;4.80;2.17;;;;;;;2.30;75.58;94523.44;5040644;23;20253;-62
2022/01/31 04:23:16;;;;;;;9.37;2.10;;;;;;;2.31;74.98;94535.06;5035326;28;20224;-62
2022/01/31 04:25:53;;;;;;;7.97;1.70;;;;;;;2.30;75.86;94528.47;5035166;28;20200;-66
2022/01/31 04:28:32;;;;;;;8.03;2.37;;;;;;;2.33;76.01;94520.75;5035438;28;20203;-64
2022/01/31 04:33:28;;;;;;;8.80;2.20;;;;;;;2.35;76.12;94498.91;5053306;28;20204;-60
2022/01/31 04:35:55;;;;;;;7.53;2.47;;;;;;;2.28;76.42;94510.19;5053231;28;20233;-63
2022/01/31 04:38:22;;;;;;;6.17;2.17;;;;;;;2.31;76.43;94510.00;5053498;28;20205;-60
2022/01/31 04:40:48;;;;;;;4.93;2.10;;;;;;;2.23;76.38;94517.94;5052725;28;20592;-61
2022/01/31 04:43:14;;;;;;;10.37;1.73;;;;;;;2.17;76.83;94489.91;5053480;28;20271;-63
2022/01/31 04:45:46;;;;;;;4.13;1.70;;;;;;;2.05;78.08;94453.78;5035084;28;20573;-62
2022/01/31 04:48:13;;;;;;;2.00;1.30;;;;;;;2.07;78.15;94456.19;5035915;28;20554;-66
2022/01/31 04:50:38;;;;;;;8.13;1.70;;;;;;;1.89;79.00;94435.47;5053495;28;20246;-62
2022/01/31 04:53:04;;;;;;;2.93;1.50;;;;;;;1.92;79.58;94421.97;5052642;28;20657;-64
2022/01/31 04:55:30;;;;;;;10.30;1.97;;;;;;;1.83;80.17;94414.94;5052974;28;20659;-63
2022/01/31 04:57:56;;;;;;;3.47;1.47;;;;;;;1.77;80.41;94393.56;5052517;28;20672;-63
2022/01/31 05:00:25;;;;;;;4.20;1.50;;;;;;;1.76;81.11;94398.66;5053548;28;20212;-64
2022/01/31 05:02:50;;;;;;;5.03;1.90;;;;;;;1.83;80.85;94392.41;5018660;28;20200;-65
2022/01/31 05:05:16;;;;;;;8.70;2.50;;;;;;;1.85;81.20;94383.91;5052714;28;20292;-58
2022/01/31 05:07:42;;;;;;;8.20;1.80;;;;;;;1.83;80.76;94393.22;5052777;28;20676;-65
2022/01/31 05:10:08;;;;;;;7.10;2.20;;;;;;;1.76;80.15;94411.19;5035243;28;20701;-62
2022/01/31 05:12:33;;;;;;;8.60;2.23;;;;;;;1.63;80.77;94404.34;5052619;28;20182;-64
2022/01/31 05:14:59;;;;;;;7.70;1.70;;;;;;;1.62;81.17;94396.88;5053326;28;20184;-64
2022/01/31 05:17:24;;;;;;;6.63;1.70;;;;;;;1.73;80.79;94401.31;5052933;28;20650;-61
2022/01/31 05:19:49;;;;;;;9.93;2.10;;;;;;;1.60;81.34;94393.66;5052559;28;20189;-64
2022/01/31 05:22:15;;;;;;;4.57;1.70;;;;;;;1.24;81.28;94331.34;5034560;28;20262;-64
2022/01/31 05:24:41;;;;;;;6.73;1.57;;;;;;;1.57;81.09;94402.16;5052430;28;20210;-67
2022/01/31 05:27:06;;;;;;;7.47;1.73;;;;;;;1.61;81.44;94400.28;5033886;28;20209;-64
2022/01/31 05:29:32;;;;;;;6.20;3.17;;;;;;;1.65;81.54;94397.53;5051841;28;20220;-65
2022/01/31 05:31:57;;;;;;;5.70;1.50;;;;;;;1.62;81.54;94391.88;5051898;28;20185;-63
2022/01/31 05:34:24;;;;;;;7.47;2.40;;;;;;;1.57;80.72;94398.84;5051719;28;20578;-63
2022/01/31 05:36:55;;;;;;;7.27;1.80;;;;;;;1.55;80.39;94411.44;5033645;28;20255;-60
2022/01/31 05:39:25;;;;;;;5.90;1.90;;;;;;;1.60;80.96;94411.19;5033567;28;20212;-65
2022/01/31 05:41:52;;;;;;;10.40;2.70;;;;;;;1.37;81.34;94381.56;5051929;28;20193;-63
2022/01/31 05:44:19;;;;;;;5.57;1.80;;;;;;;1.52;81.09;94386.56;5053419;28;20197;-64
2022/01/31 05:46:44;;;;;;;3.97;1.57;;;;;;;1.46;81.50;94396.09;5033579;28;20670;-62
2022/01/31 05:49:10;;;;;;;4.30;1.70;;;;;;;1.36;81.68;94395.78;5033520;28;20276;-62
2022/01/31 05:51:52;;;;;;;6.90;1.87;;;;;;;1.36;81.90;94389.97;5033786;28;20318;-66
2022/01/31 05:54:17;;;;;;;8.53;1.63;;;;;;;1.39;81.96;94380.63;5033540;28;20238;-64
2022/01/31 05:56:43;;;;;;;3.27;1.63;;;;;;;1.34;82.26;94379.22;5034297;28;20197;-59
2022/01/31 05:59:09;;;;;;;5.27;2.20;;;;;;;1.37;82.48;94379.88;5055540;28;20204;-66
2022/01/31 06:01:38;;;;;;;9.07;2.40;;;;;;;1.39;82.48;94380.63;5055476;28;20221;-59
2022/01/31 06:04:06;;;;;;;7.03;2.30;;;;;;;1.45;82.17;94385.28;5042030;23;20232;-60
2022/01/31 06:06:32;;;;;;;6.37;1.87;;;;;;;1.46;81.71;94406.09;5055515;28;20647;-59
2022/01/31 06:08:57;;;;;;;7.13;1.53;;;;;;;1.49;81.08;94411.78;5055744;28;20228;-64
2022/01/31 06:11:24;;;;;;;9.77;1.87;;;;;;;1.53;86.83;94279.69;5055295;28;20665;-67
2022/01/31 06:13:51;;;;;;;11.80;2.70;;;;;;;2.29;84.16;94517.63;5055254;28;20597;-58
2022/01/31 06:16:18;;;;;;;9.63;2.43;;;;;;;4.60;100.00;94362.72;5037468;28;20182;-61
2022/01/31 06:18:44;;;;;;;2.90;1.60;;;;;;;3.04;80.69;94539.28;5055564;28;20217;-62
2022/01/31 06:21:12;;;;;;;5.00;2.60;;;;;;;2.54;81.55;94484.47;5037118;28;20590;-60
2022/01/31 06:23:38;;;;;;;4.70;2.30;;;;;;;2.24;81.70;94481.16;5055244;28;20288;-63
2022/01/31 06:26:22;;;;;;;7.47;3.03;;;;;;;3.62;100.00;94349.03;5037006;28;20268;-58
2022/01/31 06:28:48;;;;;;;4.43;2.33;;;;;;;5.21;91.13;94587.88;5055294;28;20201;-65
2022/01/31 06:31:15;;;;;;;7.07;2.47;;;;;;;3.93;89.13;94531.44;5037167;28;20197;-60
2022/01/31 06:33:40;;;;;;;7.07;2.33;;;;;;;3.10;82.10;94533.91;5054949;28;20610;-63
2022/01/31 06:36:06;;;;;;;4.97;2.60;;;;;;;2.57;84.59;94459.19;5054755;28;20643;-58
2022/01/31 06:38:35;;;;;;;4.00;1.83;;;;;;;2.31;84.88;94452.31;5054799;28;20292;-62
2022/01/31 06:41:01;;;;;;;6.30;3.00;;;;;;;2.28;85.98;94427.44;5054879;28;20266;-62
2022/01/31 06:43:26;;;;;;;7.07;2.40;;;;;;;2.05;83.59;94455.47;5054761;28;20197;-60
2022/01/31 06:45:51;;;;;;;7.27;2.33;;;;;;;1.93;83.20;94431.09;5054527;28;20617;-64
2022/01/31 06:48:17;;;;;;;6.70;2.90;;;;;;;1.89;83.24;94412.09;5054849;28;20224;-67
2022/01/31 06:50:42;;;;;;;5.53;2.20;;;;;;;1.86;83.39;94399.75;5036944;28;20178;-60
2022/01/31 06:53:08;;;;;;;8.90;2.20;;;;;;;1.87;83.67;94386.31;5036545;28;20300;-63
2022/01/31 06:55:34;;;;;;;6.67;2.07;;;;;;;1.93;81.87;94416.06;5054715;28;20225;-64
2022/01/31 06:58:02;;;;;;;5.70;2.07;;;;;;;1.93;82.55;94421.88;5054779;28;20270;-58
2022/01/31 07:00:29;;;;;;;5.03;2.30;;;;;;;1.88;82.47;94426.31;5036581;28;20570;-59
2022/01/31 07:02:55;;;;;;;5.97;1.60;;;;;;;1.99;81.79;94430.75;5054286;28;20209;-64
2022/01/31 07:05:21;;;;;;;9.67;2.53;;;;;;;2.12;80.82;94439.22;5054536;28;20185;-67
2022/01/31 07:07:48;;;;;;;3.90;1.80;;;;;;;2.03;79.95;94478.13;5035985;28;20197;-61
2022/01/31 07:10:14;;;;;;;7.37;1.87;;;;;;;2.04;79.34;94456.38;5054031;28;20735;-65
2022/01/31 07:12:47;;;;;;;5.97;1.90;;;;;;;2.02;80.47;94423.84;5053844;28;20209;-60
2022/01/31 07:15:13;;;;;;;7.03;2.37;;;;;;;2.01;80.40;94426.47;5053978;28;20180;-60
2022/01/31 07:17:38;;;;;;;7.60;1.80;;;;;;;2.06;78.87;94454.59;5053944;28;20636;-58
2022/01/31 07:20:10;;;;;;;13.73;2.13;;;;;;;2.19;78.78;94451.31;5036071;28;20188;-68
2022/01/31 07:22:39;;;;;;;5.50;2.43;;;;;;;2.26;77.93;94450.06;5035802;28;20629;-63
2022/01/31 07:25:21;;;;;;;4.40;1.47;;;;;;;2.37;77.91;94462.00;5053894;28;20182;-61
2022/01/31 07:27:47;;;;;;;4.67;2.23;;;;;;;2.51;76.33;94484.63;5053759;28;20224;-66
2022/01/31 07:30:12;;;;;;;6.90;1.90;;;;;;;2.32;75.01;94506.63;5053551;28;20216;-65
2022/01/31 07:32:41;;;;;;;9.80;2.20;;;;;;;2.38;73.63;94513.81;5035498;28;20666;-60
2022/01/31 07:35:11;;;;;;;5.03;2.00;;;;;;;2.43;73.95;94486.75;5036616;28;20223;-67
2022/01/31 07:37:36;;;;;;;5.20;2.00;;;;;;;2.48;74.10;94464.75;5053372;28;20177;-65
2022/01/31 07:40:06;;;;;;;7.17;2.30;;;;;;;2.37;73.81;94474.56;5066720;23;20734;-63
2022/01/31 07:42:32;;;;;;;6.03;1.90;;;;;;;2.39;73.63;94475.28;5061610;23;20210;-64
2022/01/31 07:44:57;;;;;;;15.53;3.10;;;;;;;2.60;73.71;94465.75;5052082;28;20198;-61
2022/01/31 07:47:23;;;;;;;8.33;2.30;;;;;;;2.59;72.10;94506.78;5054117;28;20639;-63
2022/01/31 07:49:50;;;;;;;5.63;2.47;;;;;;;2.50;73.12;94503.09;5053853;28;20186;-62
2022/01/31 07:52:16;;;;;;;6.63;2.13;;;;;;;2.54;72.68;94502.03;5053159;28;20250;-68
2022/01/31 07:54:43;;;;;;;9.40;2.60;;;;;;;2.71;72.18;94501.84;5040209;23;20230;-61
2022/01/31 07:57:17;;;;;;;8.80;2.40;;;;;;;2.80;71.49;94505.56;5053473;28;20173;-62
2022/01/31 07:59:42;;;;;;;6.87;2.30;;;;;;;2.89;70.81;94505.81;5053493;28;20701;-62
2022/01/31 08:02:08;;;;;;;4.50;2.00;;;;;;;2.97;71.50;94505.41;5053281;28;20279;-62
2022/01/31 08:04:34;;;;;;;12.93;2.13;;;;;;;2.90;70.59;94519.19;5076199;23;20265;-62
2022/01/31 08:07:06;;;;;;;11.60;3.03;;;;;;;3.04;70.50;94517.50;5036525;28;20197;-65
2022/01/31 08:09:32;;;;;;;4.47;1.97;;;;;;;3.11;68.72;94558.13;5052794;28;20212;-64
2022/01/31 08:11:57;;;;;;;13.87;2.47;;;;;;;3.12;67.50;94559.75;5053038;28;20182;-61
2022/01/31 08:14:23;;;;;;;4.10;1.70;;;;;;;3.21;67.72;94549.19;5034972;28;20209;-65
2022/01/31 08:16:49;;;;;;;5.57;1.97;;;;;;;3.47;66.80;94568.56;5035002;28;20580;-63
2022/01/31 08:19:14;;;;;;;9.83;2.90;;;;;;;3.45;66.22;94577.91;5062151;23;20619;-63
2022/01/31 08:21:40;;;;;;;8.67;2.43;;;;;;;3.47;66.35;94545.13;5052468;28;20762;-63
2022/01/31 08:24:06;;;;;;;8.30;1.80;;;;;;;3.45;66.92;94539.41;5070740;23;20616;-65
2022/01/31 08:26:32;;;;;;;12.83;2.27;;;;;;;3.70;65.08;94569.69;5074529;23;20238;-67
2022/01/31 08:29:15;;;;;;;4.33;2.00;;;;;;;3.69;65.21;94573.13;5034094;28;20327;-66
2022/01/31 08:31:41;;;;;;;9.40;2.50;;;;;;;3.60;66.06;94544.31;5052691;28;20166;-64
2022/01/31 08:34:22;;;;;;;5.93;1.93;;;;;;;3.65;64.51;94579.22;5052445;28;20220;-62
2022/01/31 08:36:48;;;;;;;4.87;1.90;;;;;;;3.83;64.31;94560.53;5034595;28;20197;-64
2022/01/31 08:39:22;;;;;;;9.70;2.77;;;;;;;4.09;64.38;94564.78;5052493;28;20204;-70
2022/01/31 08:41:51;;;;;;;5.07;2.30;;;;;;;4.20;62.84;94608.50;5051292;28;20439;-66
2022/01/31 08:44:19;;;;;;;8.63;2.37;;;;;;;4.10;62.98;94594.09;5052023;28;20204;-63
2022/01/31 08:46:48;;;;;;;7.90;2.33;;;;;;;4.47;62.83;94606.00;5052287;28;20181;-62
2022/01/31 08:49:15;;;;;;;4.53;2.37;;;;;;;4.41;62.84;94595.50;5052162;28;20193;-63
2022/01/31 08:51:42;;;;;;;8.90;2.13;;;;;;;4.38;61.02;94616.66;5052308;28;20184;-64
2022/01/31 08:54:16;;;;;;;5.40;1.90;;;;;;;4.29;60.15;94622.25;5052020;28;20198;-62
2022/01/31 08:56:47;;;;;;;3.73;1.63;;;;;;;4.48;59.50;94637.84;5051996;28;20178;-68
2022/01/31 08:59:18;;;;;;;6.17;2.03;;;;;;;4.54;58.36;94656.78;5034354;28;20307;-62
2022/01/31 09:01:52;;;;;;;12.60;2.60;;;;;;;4.57;59.09;94629.72;5034193;28;20209;-63
2022/01/31 09:04:33;;;;;;;6.60;2.53;;;;;;;4.51;58.10;94641.84;5034363;28;20216;-70
2022/01/31 09:07:01;;;;;;;10.40;2.40;;;;;;;4.50;58.38;94615.09;5034415;28;20215;-65
2022/01/31 09:09:28;;;;;;;9.40;1.87;;;;;;;4.70;57.95;94612.13;5005431;23;20314;-70
2022/01/31 09:11:57;;;;;;;7.57;1.70;;;;;;;4.73;58.48;94609.41;5012324;28;20205;-65
2022/01/31 09:14:22;;;;;;;6.67;1.63;;;;;;;5.03;56.58;94636.00;5012775;28;20572;-66
2022/01/31 09:16:48;;;;;;;8.77;2.37;;;;;;;5.21;56.21;94625.66;5012077;28;20195;-64
2022/01/31 09:19:13;;;;;;;6.70;2.23;;;;;;;5.13;54.98;94612.75;5012079;28;20229;-61
2022/01/31 09:21:39;;;;;;;13.77;3.93;;;;;;;5.68;54.86;94610.75;5024282;23;20229;-64
2022/01/31 09:24:04;;;;;;;7.10;1.67;;;;;;;6.16;54.01;94627.66;5066462;23;20307;-68
2022/01/31 09:26:30;;;;;;;9.47;2.07;;;;;;;5.79;52.88;94625.97;5075602;23;20255;-70
2022/01/31 09:28:56;;;;;;;9.23;2.10;;;;;;;6.38;53.53;94602.56;5066905;23;20238;-67
2022/01/31 09:31:22;;;;;;;5.67;1.97;;;;;;;6.56;53.14;94601.31;5060143;23;20211;-69
2022/01/31 09:33:54;;;;;;;6.20;2.73;;;;;;;6.86;51.26;94653.09;5097882;23;20241;-66
2022/01/31 09:36:22;;;;;;;6.57;2.67;;;;;;;7.06;51.24;94640.69;5052026;28;20160;-61
2022/01/31 09:41:17;;;;;;;9.88;2.40;;;;;;;7.19;48.54;94699.53;5056574;23;20253;-67
2022/01/31 09:46:33;;;;;;;8.93;2.00;;;;;;;7.57;47.98;94658.88;5051486;28;20181;-68
2022/01/31 09:48:59;;;;;;;5.40;2.50;;;;;;;7.21;48.11;94628.66;5037356;28;20221;-65
2022/01/31 09:51:26;;;;;;;7.23;2.90;;;;;;;7.20;49.72;94567.19;5031664;28;20182;-66
2022/01/31 09:53:58;;;;;;;6.20;2.30;;;;;;;6.79;47.74;94623.22;5031934;28;20237;-65
2022/01/31 09:56:37;;;;;;;6.63;1.97;;;;;;;6.72;48.83;94576.59;5031764;28;20170;-65
2022/01/31 09:59:04;;;;;;;6.97;2.50;;;;;;;7.17;50.19;94505.94;5027986;23;20239;-65
2022/01/31 10:01:54;;;;;;;6.73;2.10;;;;;;;6.70;48.00;94578.41;5051197;28;20205;-66
2022/01/31 10:04:25;;;;;;;5.03;1.70;;;;;;;6.26;48.03;94573.13;5082755;23;20229;-63
2022/01/31 10:06:57;;;;;;;5.90;1.97;;;;;;;5.70;48.03;94568.59;5051432;28;20183;-63
2022/01/31 10:09:26;;;;;;;7.47;1.90;;;;;;;5.42;49.14;94506.59;5061561;23;20712;-70
2022/01/31 10:11:56;;;;;;;10.87;1.90;;;;;;;5.49;50.15;94469.19;5051219;28;20595;-66
2022/01/31 10:17:09;;;;;;;5.17;1.63;;;;;;;5.21;50.83;94441.72;5056254;23;20777;-63
2022/01/31 10:19:43;;;;;;;5.63;2.10;;;;;;;5.07;50.59;94422.50;5051114;28;20226;-61
2022/01/31 10:22:13;;;;;;;5.07;1.90;;;;;;;5.35;51.70;94381.94;5056355;23;20230;-61
2022/01/31 10:24:41;;;;;;;4.57;1.87;;;;;;;5.25;50.56;94418.75;5056672;23;20224;-67
2022/01/31 10:27:09;;;;;;;5.23;1.50;;;;;;;5.29;50.17;94439.50;5064374;23;20222;-65
2022/01/31 10:29:38;;;;;;;9.17;2.00;;;;;;;6.35;51.24;94407.59;5061724;23;20230;-65
2022/01/31 10:32:08;;;;;;;7.93;1.90;;;;;;;7.15;48.32;94492.63;5037885;23;20259;-63
2022/01/31 10:34:44;;;;;;;4.97;1.47;;;;;;;7.50;47.45;94533.78;5050945;28;20249;-61
2022/01/31 10:37:13;;;;;;;10.87;2.50;;;;;;;7.90;47.12;94484.28;5051217;28;20199;-66
2022/01/31 10:53:57;;;;;;;6.33;1.87;;;;;;;6.92;44.61;94394.97;5063181;23;20229;-65
2022/01/31 10:56:24;;;;;;;3.33;1.97;;;;;;;6.93;43.66;94401.63;5053996;28;20169;-65
2022/01/31 10:59:00;;;;;;;6.30;1.87;;;;;;;6.60;44.41;94380.47;5052701;28;20200;-62
2022/01/31 11:01:26;;;;;;;11.27;2.57;;;;;;;6.77;44.46;94364.88;5053840;28;20207;-62
2022/01/31 11:04:00;;;;;;;5.23;1.50;;;;;;;6.94;43.64;94380.50;5035736;28;20208;-60
2022/01/31 11:06:26;;;;;;;4.10;1.53;;;;;;;6.74;43.55;94367.63;5035708;28;20590;-64
2022/01/31 11:08:52;;;;;;;5.33;1.50;;;;;;;7.09;43.15;94357.38;5067198;23;20286;-61
2022/01/31 11:11:21;;;;;;;5.90;1.57;;;;;;;7.54;42.53;94373.28;5068648;23;20236;-66
2022/01/31 11:13:48;;;;;;;5.10;1.57;;;;;;;8.61;43.49;94359.59;5053500;28;20217;-64
2022/01/31 11:16:15;;;;;;;2.37;1.63;;;;;;;8.82;40.81;94403.47;5053259;28;20280;-65
2022/01/31 11:18:47;;;;;;;6.27;1.80;;;;;;;8.06;40.15;94392.81;5053073;28;20752;-64
2022/01/31 11:21:15;;;;;;;5.07;1.60;;;;;;;8.26;41.39;94357.38;5035389;28;20231;-64
2022/01/31 11:23:49;;;;;;;4.20;1.50;;;;;;;8.86;41.10;94338.13;5053179;28;20205;-65
2022/01/31 11:26:18;;;;;;;9.00;1.43;;;;;;;8.21;39.10;94366.25;5053313;28;20172;-65
2022/01/31 11:28:47;;;;;;;3.93;1.53;;;;;;;8.09;39.63;94352.84;5035054;28;20207;-65
2022/01/31 11:31:16;;;;;;;5.53;1.80;;;;;;;8.18;41.40;94321.72;5053208;28;20178;-62
2022/01/31 11:33:43;;;;;;;7.80;1.90;;;;;;;8.70;40.83;94343.66;5052799;28;20284;-63
2022/01/31 11:36:10;;;;;;;4.33;1.33;;;;;;;8.57;39.71;94378.50;5053235;28;20209;-65
2022/01/31 11:38:39;;;;;;;4.03;1.50;;;;;;;8.67;38.45;94376.84;5034787;28;20583;-65
2022/01/31 11:41:07;;;;;;;6.70;1.73;;;;;;;8.20;39.04;94346.94;5057669;23;20229;-63
2022/01/31 11:43:32;;;;;;;4.40;1.20;;;;;;;8.48;38.90;94346.34;5039665;23;20287;-64
2022/01/31 11:46:00;;;;;;;4.97;1.40;;;;;;;8.36;38.91;94325.34;5052854;28;20174;-65
2022/01/31 11:48:29;;;;;;;4.20;1.30;;;;;;;8.99;38.87;94326.00;5055384;23;20324;-65
2022/01/31 11:51:05;;;;;;;6.43;2.13;;;;;;;8.70;38.75;94347.91;5034941;28;20243;-60
2022/01/31 11:53:36;;;;;;;3.27;0.97;;;;;;;8.37;37.78;94333.75;5034936;28;20216;-65
2022/01/31 11:56:17;;;;;;;2.83;1.00;;;;;;;7.95;38.26;94294.94;5051932;28;20174;-65
2022/01/31 11:58:47;;;;;;;2.23;1.37;;;;;;;8.35;38.97;94292.53;5052825;28;20227;-62
2022/01/31 12:01:14;;;;;;;4.27;1.30;;;;;;;8.58;39.02;94270.41;5052547;28;20196;-62
2022/01/31 12:03:54;;;;;;;3.97;1.50;;;;;;;9.07;37.69;94298.31;5052867;28;20243;-60
2022/01/31 12:06:24;;;;;;;6.07;1.13;;;;;;;9.09;37.51;94296.44;5052661;28;20284;-59